Time;durP1;ratioP1;P1;durP2;ratioP2;P2;SDS_P1;SDS_P2;PMS_P1;PMS_P2;Temp;Humidity;BMP_temperature;BMP_pressure;BME280_temperature;BME280_humidity;BME280_pressure;Samples;Min_cycle;Max_cycle;Signal;HPM_P1;HPM_P2
2022/07/10 00:00:30;;;;;;;2.47;2.27;;;16.60;99.90;;;;;;5062476;28;20620;-86
2022/07/10 00:02:59;;;;;;;2.20;2.03;;;16.60;99.90;;;;;;5055444;28;20744;-86
2022/07/10 00:05:26;;;;;;;2.73;2.53;;;16.60;99.90;;;;;;5061613;28;21446;-84
2022/07/10 00:07:53;;;;;;;2.87;2.67;;;16.60;99.90;;;;;;5052421;28;21281;-85
2022/07/10 00:10:21;;;;;;;2.23;2.00;;;16.70;99.90;;;;;;5056859;28;20671;-86
2022/07/10 00:12:49;;;;;;;3.60;3.20;;;17.20;99.90;;;;;;5056993;28;20677;-84
2022/07/10 00:15:20;;;;;;;3.00;2.00;;;16.70;99.90;;;;;;5055160;28;20632;-85
2022/07/10 00:17:47;;;;;;;1.77;1.67;;;16.80;99.90;;;;;;5055798;28;20606;-85
2022/07/10 00:20:19;;;;;;;3.50;2.90;;;16.80;99.90;;;;;;5057957;28;20648;-85
2022/07/10 00:22:47;;;;;;;3.70;2.00;;;16.70;99.90;;;;;;5059324;28;20624;-86
2022/07/10 00:25:15;;;;;;;2.63;2.47;;;16.70;99.90;;;;;;5052897;28;20610;-86
2022/07/10 00:27:45;;;;;;;2.57;2.20;;;16.70;99.90;;;;;;5053336;28;21068;-86
2022/07/10 00:30:13;;;;;;;2.53;2.33;;;16.70;99.90;;;;;;5051226;28;20633;-86
2022/07/10 00:32:41;;;;;;;2.87;2.60;;;16.70;99.90;;;;;;5056858;28;20649;-85
2022/07/10 00:35:09;;;;;;;2.30;2.10;;;16.70;99.90;;;;;;5054356;28;20647;-85
2022/07/10 00:37:39;;;;;;;2.80;2.60;;;16.80;99.90;;;;;;5054692;28;20622;-86
2022/07/10 00:40:07;;;;;;;2.60;2.40;;;16.80;99.90;;;;;;5050406;28;20624;-86
2022/07/10 00:42:35;;;;;;;2.10;2.00;;;16.80;99.90;;;;;;5055333;28;20649;-87
2022/07/10 00:45:03;;;;;;;2.40;2.20;;;16.80;99.90;;;;;;5058054;28;20622;-87
2022/07/10 00:47:31;;;;;;;2.30;2.10;;;16.80;99.90;;;;;;5056235;28;20625;-87
2022/07/10 00:49:59;;;;;;;2.47;2.27;;;16.80;99.90;;;;;;5052277;28;21360;-84
2022/07/10 00:52:27;;;;;;;2.53;2.33;;;16.80;99.90;;;;;;5052844;28;20617;-87
2022/07/10 00:54:56;;;;;;;2.97;2.27;;;16.80;99.90;;;;;;5058153;28;20716;-86
2022/07/10 00:57:24;;;;;;;2.30;1.90;;;16.80;99.90;;;;;;5056946;28;20644;-86
2022/07/10 00:59:52;;;;;;;2.00;1.90;;;16.70;99.90;;;;;;5054910;28;20614;-86
2022/07/10 01:02:19;;;;;;;2.13;1.97;;;16.70;99.90;;;;;;5054475;28;20662;-87
2022/07/10 01:04:47;;;;;;;2.20;2.00;;;16.70;99.90;;;;;;5051337;28;20603;-86
2022/07/10 01:07:15;;;;;;;2.43;2.23;;;16.60;99.90;;;;;;5050751;28;20664;-87
2022/07/10 01:09:42;;;;;;;2.50;2.30;;;16.60;99.90;;;;;;5050205;28;21115;-86
2022/07/10 01:12:12;;;;;;;2.80;2.53;;;16.50;99.90;;;;;;5056509;28;20629;-83
2022/07/10 01:14:41;;;;;;;2.60;2.40;;;16.50;99.90;;;;;;5059262;28;20667;-86
2022/07/10 01:17:09;;;;;;;2.87;2.40;;;16.50;99.90;;;;;;5054169;28;20613;-86
2022/07/10 01:19:37;;;;;;;5.13;2.27;;;16.40;99.90;;;;;;5060491;28;20613;-86
2022/07/10 01:22:07;;;;;;;2.03;1.93;;;16.40;99.90;;;;;;5056537;28;20620;-85
2022/07/10 01:24:34;;;;;;;2.30;2.00;;;16.50;99.90;;;;;;5051240;28;21141;-87
2022/07/10 01:27:03;;;;;;;3.03;2.73;;;16.40;99.90;;;;;;5056201;28;20617;-85
2022/07/10 01:29:30;;;;;;;2.80;2.50;;;16.30;99.90;;;;;;5051434;28;20625;-86
2022/07/10 01:32:00;;;;;;;2.30;2.10;;;16.30;99.90;;;;;;5057612;28;20667;-87
2022/07/10 01:34:29;;;;;;;2.00;1.83;;;16.30;99.90;;;;;;5053936;28;20638;-86
2022/07/10 01:36:57;;;;;;;2.43;2.23;;;;;;;;;;5051251;28;20613;-84
2022/07/10 01:39:26;;;;;;;2.83;2.50;;;16.20;99.90;;;;;;5053631;28;20719;-88
2022/07/10 01:41:54;;;;;;;1.97;1.83;;;16.10;99.90;;;;;;5056433;28;20728;-86
2022/07/10 01:44:22;;;;;;;2.33;2.13;;;16.10;99.90;;;;;;5054474;28;20622;-85
2022/07/10 01:46:50;;;;;;;2.80;2.60;;;16.10;99.90;;;;;;5052777;28;20613;-86
2022/07/10 01:49:18;;;;;;;2.23;2.03;;;16.10;99.90;;;;;;5057667;28;21020;-86
2022/07/10 01:51:46;;;;;;;2.00;1.90;;;15.90;99.90;;;;;;5049424;28;20675;-86
2022/07/10 01:54:13;;;;;;;3.60;2.80;;;15.90;99.90;;;;;;5050705;28;20728;-86
2022/07/10 01:56:42;;;;;;;2.20;2.00;;;15.90;99.90;;;;;;5053980;28;20725;-86
2022/07/10 01:59:09;;;;;;;2.43;2.27;;;15.80;99.90;;;;;;5056614;28;20617;-84
2022/07/10 02:01:36;;;;;;;2.10;2.00;;;15.80;99.90;;;;;;5052059;28;20613;-86
2022/07/10 02:06:48;;;;;;;2.80;2.07;;;15.70;99.90;;;;;;5057064;28;20633;-85
2022/07/10 02:09:16;;;;;;;2.97;2.63;;;15.70;99.90;;;;;;5051504;28;21106;-86
2022/07/10 02:11:52;;;;;;;5.37;2.30;;;15.60;99.90;;;;;;5051235;28;20729;-86
2022/07/10 02:14:19;;;;;;;2.90;2.70;;;15.60;99.90;;;;;;5053135;28;20654;-86
2022/07/10 02:16:46;;;;;;;2.60;2.20;;;15.40;99.90;;;;;;5052804;28;20617;-85
2022/07/10 02:19:13;;;;;;;3.20;2.10;;;15.60;99.90;;;;;;5048183;28;20722;-86
2022/07/10 02:21:40;;;;;;;2.77;2.47;;;15.50;99.90;;;;;;5055433;28;20629;-86
2022/07/10 02:24:07;;;;;;;2.00;1.87;;;15.40;99.90;;;;;;5058430;28;21039;-86
2022/07/10 02:26:34;;;;;;;2.60;2.40;;;15.40;99.90;;;;;;5053447;28;20614;-87
2022/07/10 02:29:02;;;;;;;4.10;3.23;;;15.40;99.90;;;;;;5052805;28;20687;-86
2022/07/10 02:31:29;;;;;;;4.27;3.33;;;15.60;99.90;;;;;;5055156;28;20645;-85
2022/07/10 02:33:56;;;;;;;3.90;3.60;;;15.60;99.90;;;;;;5055374;28;20749;-86
2022/07/10 02:36:23;;;;;;;3.80;2.93;;;15.40;99.90;;;;;;5050307;28;20699;-87
2022/07/10 02:38:52;;;;;;;4.20;3.80;;;15.70;99.90;;;;;;5050151;28;20627;-85
2022/07/10 02:41:19;;;;;;;4.93;4.43;;;15.70;99.90;;;;;;5052213;28;20623;-86
2022/07/10 02:43:47;;;;;;;4.87;4.47;;;;;;;;;;5057156;28;20918;-85
2022/07/10 02:46:16;;;;;;;4.07;3.60;;;15.80;99.90;;;;;;5053497;28;20625;-86
2022/07/10 02:48:43;;;;;;;5.27;4.27;;;15.80;99.90;;;;;;5053592;28;20621;-85
2022/07/10 02:51:10;;;;;;;4.60;4.20;;;15.80;99.90;;;;;;5054944;28;20654;-86
2022/07/10 02:53:37;;;;;;;5.17;4.70;;;15.80;99.90;;;;;;5057215;28;21291;-85
2022/07/10 02:56:04;;;;;;;6.53;4.77;;;15.80;99.90;;;;;;5054394;28;20618;-85
2022/07/10 02:58:31;;;;;;;3.97;3.53;;;15.90;99.90;;;;;;5056800;28;20642;-86
2022/07/10 03:00:58;;;;;;;7.17;5.53;;;15.80;99.90;;;;;;5052342;28;20613;-85
2022/07/10 03:03:27;;;;;;;5.57;5.07;;;15.90;99.90;;;;;;5054721;28;20654;-85
2022/07/10 03:05:54;;;;;;;5.60;4.93;;;15.80;99.90;;;;;;5056824;28;20645;-85
2022/07/10 03:08:21;;;;;;;6.17;5.10;;;15.90;99.90;;;;;;5053512;28;20632;-85
2022/07/10 03:10:47;;;;;;;8.20;6.13;;;15.90;99.90;;;;;;5053997;28;20657;-84
2022/07/10 03:13:14;;;;;;;6.23;4.83;;;15.70;99.90;;;;;;5057429;28;21364;-86
2022/07/10 03:15:41;;;;;;;6.13;4.93;;;15.70;99.90;;;;;;5060803;28;20725;-85
2022/07/10 03:18:08;;;;;;;9.50;5.93;;;15.70;99.90;;;;;;5060498;28;20725;-86
2022/07/10 03:20:36;;;;;;;6.13;5.40;;;15.60;99.90;;;;;;5052191;28;20630;-84
2022/07/10 03:23:03;;;;;;;5.20;4.10;;;15.60;99.90;;;;;;5059791;28;21031;-85
2022/07/10 03:25:30;;;;;;;6.10;5.47;;;15.70;99.90;;;;;;5057026;28;20633;-85
2022/07/10 03:27:57;;;;;;;7.30;4.97;;;15.80;99.90;;;;;;5057605;28;20688;-86
2022/07/10 03:30:24;;;;;;;6.13;4.87;;;15.80;99.90;;;;;;5055433;28;20624;-86
2022/07/10 03:32:51;;;;;;;10.50;4.57;;;15.80;99.90;;;;;;5061574;28;20770;-85
2022/07/10 03:35:18;;;;;;;4.47;4.07;;;15.80;99.90;;;;;;5057685;28;21948;-85
2022/07/10 03:37:46;;;;;;;5.20;3.90;;;15.70;99.90;;;;;;5055036;28;20630;-86
2022/07/10 03:40:13;;;;;;;4.57;4.13;;;15.70;99.90;;;;;;5056530;28;20682;-85
2022/07/10 03:42:40;;;;;;;5.60;5.13;;;15.80;99.90;;;;;;5061922;28;20708;-85
2022/07/10 03:45:07;;;;;;;4.30;3.90;;;15.70;99.90;;;;;;5050546;28;20649;-85
2022/07/10 03:47:34;;;;;;;5.63;4.60;;;15.60;99.90;;;;;;5058347;28;21266;-85
2022/07/10 03:50:02;;;;;;;5.77;3.67;;;15.70;99.90;;;;;;5054616;28;20645;-86
2022/07/10 03:52:28;;;;;;;4.70;4.13;;;15.70;99.90;;;;;;5056936;28;20691;-85
2022/07/10 03:54:57;;;;;;;4.40;4.00;;;15.90;99.90;;;;;;5062133;28;20629;-86
2022/07/10 04:00:10;;;;;;;6.50;5.20;;;16.00;99.90;;;;;;5055137;28;20765;-87
2022/07/10 04:02:37;;;;;;;6.13;5.53;;;15.90;99.90;;;;;;5057796;28;20644;-86
2022/07/10 04:05:07;;;;;;;4.43;3.90;;;15.80;99.90;;;;;;5055174;28;20621;-84
2022/07/10 04:07:34;;;;;;;3.70;3.40;;;15.80;99.90;;;;;;5061699;28;20704;-85
2022/07/10 04:10:03;;;;;;;5.67;4.17;;;15.90;99.90;;;;;;5050859;28;20722;-85
2022/07/10 04:12:30;;;;;;;5.00;4.20;;;15.80;99.90;;;;;;5056305;28;21037;-86
2022/07/10 04:14:57;;;;;;;6.63;5.50;;;15.80;99.90;;;;;;5051029;28;20654;-85
2022/07/10 04:17:24;;;;;;;5.60;3.80;;;15.70;99.90;;;;;;5057887;28;20626;-86
2022/07/10 04:19:51;;;;;;;5.63;4.63;;;15.70;99.90;;;;;;5054599;28;20669;-86
2022/07/10 04:22:17;;;;;;;4.30;3.43;;;15.80;99.90;;;;;;5053968;28;20619;-85
2022/07/10 04:24:44;;;;;;;4.20;3.80;;;15.70;99.90;;;;;;5061266;28;20637;-87
2022/07/10 04:27:13;;;;;;;5.47;4.07;;;15.90;99.90;;;;;;5056551;28;20613;-86
2022/07/10 04:29:39;;;;;;;5.40;4.90;;;15.70;99.90;;;;;;5057494;28;21172;-85
2022/07/10 04:32:07;;;;;;;8.63;4.67;;;15.60;99.90;;;;;;5051196;28;21142;-84
2022/07/10 04:34:34;;;;;;;5.43;4.93;;;15.60;99.90;;;;;;5057943;28;20645;-85
2022/07/10 04:37:01;;;;;;;4.50;3.40;;;15.60;99.90;;;;;;5052709;28;20649;-85
2022/07/10 04:39:28;;;;;;;3.73;3.40;;;15.60;99.90;;;;;;5056503;28;20629;-85
2022/07/10 04:41:55;;;;;;;4.83;3.67;;;15.70;99.90;;;;;;5053016;28;20733;-85
2022/07/10 04:44:23;;;;;;;4.10;2.97;;;15.60;99.90;;;;;;5055218;28;20675;-85
2022/07/10 04:46:50;;;;;;;4.03;3.63;;;15.60;99.90;;;;;;5056919;28;20647;-85
2022/07/10 04:49:17;;;;;;;4.30;3.90;;;15.40;99.90;;;;;;5054618;28;20654;-84
2022/07/10 04:51:44;;;;;;;4.03;3.63;;;15.40;99.90;;;;;;5053661;28;20653;-86
2022/07/10 04:54:11;;;;;;;4.17;3.20;;;15.50;99.90;;;;;;5053275;28;20642;-84
2022/07/10 04:56:38;;;;;;;4.70;3.07;;;15.40;99.90;;;;;;5053121;28;20679;-85
2022/07/10 04:59:05;;;;;;;3.60;3.30;;;15.40;99.90;;;;;;5058249;28;21214;-85
2022/07/10 05:01:34;;;;;;;4.00;3.47;;;15.50;99.90;;;;;;5059421;28;20613;-84
2022/07/10 05:04:01;;;;;;;4.13;3.00;;;15.50;99.90;;;;;;5053868;28;20614;-85
2022/07/10 05:06:28;;;;;;;4.73;3.30;;;15.60;99.90;;;;;;5052267;28;20675;-84
2022/07/10 05:08:55;;;;;;;3.50;3.03;;;15.60;99.90;;;;;;5056822;28;20688;-85
2022/07/10 05:11:22;;;;;;;3.07;2.77;;;15.60;99.90;;;;;;5052388;28;20630;-85
2022/07/10 05:13:49;;;;;;;3.37;2.23;;;15.50;99.90;;;;;;5055064;28;21204;-84
2022/07/10 05:16:17;;;;;;;3.70;3.20;;;15.40;99.90;;;;;;5050419;28;21038;-85
2022/07/10 05:18:45;;;;;;;3.83;2.97;;;15.40;99.90;;;;;;5050742;28;20660;-85
2022/07/10 05:21:13;;;;;;;2.63;2.30;;;15.50;99.90;;;;;;5048723;28;20634;-84
2022/07/10 05:23:40;;;;;;;3.40;3.00;;;15.50;99.90;;;;;;5057509;28;20630;-86
2022/07/10 05:26:07;;;;;;;2.33;2.13;;;15.70;99.90;;;;;;5052261;28;20615;-85
2022/07/10 05:28:34;;;;;;;2.40;2.20;;;15.70;99.90;;;;;;5051575;28;20712;-84
2022/07/10 05:31:06;;;;;;;4.03;2.63;;;15.50;99.90;;;;;;5050830;28;20780;-85
2022/07/10 05:33:33;;;;;;;3.17;2.43;;;15.40;99.90;;;;;;5050918;28;20734;-84
2022/07/10 05:36:02;;;;;;;3.40;2.87;;;15.40;99.90;;;;;;5051617;28;21267;-83
2022/07/10 05:38:29;;;;;;;2.83;2.37;;;15.60;99.90;;;;;;5054532;28;20622;-85
2022/07/10 05:40:55;;;;;;;2.17;2.07;;;15.40;99.90;;;;;;5054206;28;20760;-85
2022/07/10 05:43:22;;;;;;;3.03;2.73;;;15.20;99.90;;;;;;5058913;28;20618;-84
2022/07/10 05:45:49;;;;;;;2.50;2.30;;;15.20;99.90;;;;;;5053325;28;20696;-85
2022/07/10 05:48:16;;;;;;;2.70;2.37;;;15.30;99.90;;;;;;5054605;28;20684;-85
2022/07/10 05:50:43;;;;;;;2.40;2.20;;;15.30;99.90;;;;;;5052885;28;20716;-84
2022/07/10 05:53:11;;;;;;;2.90;2.70;;;15.30;99.90;;;;;;5051546;28;20645;-84
2022/07/10 05:55:38;;;;;;;2.30;2.20;;;15.30;99.90;;;;;;5059802;28;20673;-85
2022/07/10 05:58:05;;;;;;;2.03;1.83;;;15.20;99.90;;;;;;5055534;28;20630;-85
2022/07/10 06:00:32;;;;;;;2.37;2.17;;;15.30;99.90;;;;;;5056091;28;20698;-86
2022/07/10 06:02:59;;;;;;;2.07;1.90;;;15.50;99.90;;;;;;5050671;28;20613;-85
2022/07/10 06:05:26;;;;;;;1.57;1.47;;;15.60;99.90;;;;;;5056927;28;20716;-84
2022/07/10 06:07:52;;;;;;;3.60;2.00;;;15.50;99.90;;;;;;5059094;28;21011;-86
2022/07/10 06:10:21;;;;;;;1.47;1.37;;;15.50;99.90;;;;;;5049149;28;20683;-85
2022/07/10 06:12:48;;;;;;;1.70;1.60;;;15.70;99.60;;;;;;5049907;28;20673;-84
2022/07/10 06:15:14;;;;;;;1.33;1.23;;;15.60;99.60;;;;;;5055416;28;20753;-85
2022/07/10 06:17:41;;;;;;;2.37;2.17;;;15.60;99.80;;;;;;5049892;28;20717;-85
2022/07/10 06:20:09;;;;;;;2.03;1.50;;;15.60;98.10;;;;;;5052428;28;20713;-85
2022/07/10 06:22:36;;;;;;;1.53;1.43;;;15.60;98.50;;;;;;5056027;28;21616;-85
2022/07/10 06:25:05;;;;;;;1.13;0.90;;;15.70;98.40;;;;;;5053103;28;20622;-83
2022/07/10 06:27:34;;;;;;;2.10;1.90;;;16.10;98.20;;;;;;5052077;28;20626;-85
2022/07/10 06:30:01;;;;;;;1.30;1.20;;;16.20;97.70;;;;;;5052438;28;21529;-85
2022/07/10 06:32:28;;;;;;;4.47;1.90;;;16.00;97.60;;;;;;5053651;28;21551;-88
2022/07/10 06:34:56;;;;;;;1.93;1.73;;;15.80;98.00;;;;;;5048330;28;20745;-82
2022/07/10 06:37:23;;;;;;;2.13;1.90;;;15.90;98.50;;;;;;5050917;28;21156;-84
2022/07/10 06:39:50;;;;;;;1.20;1.10;;;16.10;98.20;;;;;;5050352;28;20962;-84
2022/07/10 06:42:17;;;;;;;1.57;1.47;;;16.10;97.60;;;;;;5051980;28;20724;-85
2022/07/10 06:44:46;;;;;;;0.83;0.83;;;16.10;97.60;;;;;;5058562;28;21085;-85
2022/07/10 06:50:02;;;;;;;1.60;1.37;;;16.40;97.20;;;;;;5059197;28;20733;-84
2022/07/10 06:52:29;;;;;;;1.50;1.40;;;16.30;96.90;;;;;;5055380;28;20621;-85
2022/07/10 06:54:56;;;;;;;1.50;1.40;;;15.90;97.10;;;;;;5054525;28;20653;-84
2022/07/10 06:57:23;;;;;;;1.50;1.40;;;15.90;97.50;;;;;;5057638;28;20621;-84
2022/07/10 06:59:51;;;;;;;1.60;1.50;;;15.90;97.80;;;;;;5056974;28;20661;-83
2022/07/10 07:02:18;;;;;;;1.50;1.40;;;15.60;97.80;;;;;;5061728;28;20724;-83
2022/07/10 07:04:45;;;;;;;2.00;1.20;;;15.50;97.90;;;;;;5061388;28;21200;-83
2022/07/10 07:07:12;;;;;;;1.37;1.27;;;15.50;98.00;;;;;;5060251;28;21186;-83
2022/07/10 07:09:40;;;;;;;2.00;1.67;;;15.70;98.10;;;;;;5062926;28;20717;-84
2022/07/10 07:12:08;;;;;;;2.23;1.90;;;15.90;98.00;;;;;;5053540;28;20697;-85
2022/07/10 07:14:35;;;;;;;1.87;1.67;;;16.20;97.10;;;;;;5051441;28;20626;-85
2022/07/10 07:17:08;;;;;;;1.27;1.17;;;16.30;97.00;;;;;;5056126;28;20722;-85
2022/07/10 07:25:01;;;;;;;1.30;1.20;;;16.40;95.50;;;;;;5050201;28;20614;-84
2022/07/10 07:27:28;;;;;;;1.17;1.17;;;16.40;94.00;;;;;;5060679;28;20621;-86
2022/07/10 07:29:55;;;;;;;1.10;1.00;;;16.30;94.40;;;;;;5059100;28;20642;-85
2022/07/10 07:32:23;;;;;;;4.83;1.33;;;16.30;94.50;;;;;;5057178;28;20615;-84
2022/07/10 07:34:50;;;;;;;1.77;1.30;;;16.40;93.90;;;;;;5058378;28;20744;-82
2022/07/10 07:37:19;;;;;;;3.03;1.13;;;16.30;94.00;;;;;;5056817;28;21647;-85
2022/07/10 07:39:56;;;;;;;1.27;1.17;;;16.20;94.60;;;;;;5057479;28;20621;-84
2022/07/10 07:42:25;;;;;;;1.77;1.30;;;16.30;94.10;;;;;;5056369;28;20620;-84
2022/07/10 07:44:51;;;;;;;2.20;1.40;;;16.30;94.30;;;;;;5051361;28;20625;-83
2022/07/10 07:47:18;;;;;;;0.83;0.83;;;16.50;93.40;;;;;;5052752;28;20646;-84
2022/07/10 07:49:46;;;;;;;1.40;1.13;;;16.40;93.60;;;;;;5058894;28;20777;-85
2022/07/10 07:52:14;;;;;;;1.23;1.03;;;16.50;93.60;;;;;;5055990;28;20972;-84
2022/07/10 07:54:40;;;;;;;1.07;1.07;;;16.80;93.30;;;;;;5056740;28;20625;-84
2022/07/10 07:57:19;;;;;;;1.03;1.03;;;16.80;92.70;;;;;;5056661;28;20617;-83
2022/07/10 07:59:46;;;;;;;1.90;1.20;;;16.90;93.30;;;;;;5052629;28;20733;-87
2022/07/10 08:02:13;;;;;;;1.10;1.00;;;17.30;92.70;;;;;;5054502;28;20629;-83
2022/07/10 08:04:40;;;;;;;1.10;1.00;;;17.60;92.40;;;;;;5057525;28;20687;-84
2022/07/10 08:07:08;;;;;;;1.07;0.93;;;17.50;91.40;;;;;;5059173;28;20660;-84
2022/07/10 08:09:35;;;;;;;2.10;1.00;;;17.70;91.70;;;;;;5059490;28;21281;-84
2022/07/10 08:12:02;;;;;;;2.07;1.30;;;17.90;90.50;;;;;;5056962;28;20724;-84
2022/07/10 08:14:29;;;;;;;0.70;0.70;;;18.00;90.40;;;;;;5053663;28;20700;-83
2022/07/10 08:16:56;;;;;;;1.23;0.70;;;18.00;89.20;;;;;;5053106;28;20645;-83
2022/07/10 08:19:23;;;;;;;1.00;0.90;;;17.80;88.60;;;;;;5051260;28;20625;-85
2022/07/10 08:21:50;;;;;;;1.10;1.03;;;17.80;88.70;;;;;;5056661;28;20621;-84
2022/07/10 08:24:18;;;;;;;1.13;0.80;;;17.50;85.10;;;;;;5056834;28;20636;-84
2022/07/10 08:26:45;;;;;;;0.90;0.90;;;17.30;87.50;;;;;;5051879;28;20726;-84
2022/07/10 08:29:12;;;;;;;1.40;1.30;;;17.60;86.90;;;;;;5059078;28;20678;-84
2022/07/10 08:31:40;;;;;;;1.53;1.10;;;17.80;87.10;;;;;;5051367;28;20622;-85
2022/07/10 08:34:07;;;;;;;1.70;1.00;;;17.80;83.10;;;;;;5056453;28;20625;-86
2022/07/10 08:36:34;;;;;;;0.80;0.80;;;17.60;83.00;;;;;;5049222;28;21410;-86
2022/07/10 08:39:01;;;;;;;0.87;0.87;;;17.70;85.50;;;;;;5049867;28;20718;-86
2022/07/10 08:41:32;;;;;;;2.60;1.27;;;17.80;83.30;;;;;;5056332;28;20628;-86
2022/07/10 08:44:00;;;;;;;0.97;0.97;;;18.00;85.80;;;;;;5049847;28;20618;-85
2022/07/10 08:46:28;;;;;;;1.00;1.00;;;18.10;85.50;;;;;;5056327;28;20617;-86
2022/07/10 08:48:55;;;;;;;1.07;0.97;;;;;;;;;;5053755;28;20637;-85
2022/07/10 08:51:31;;;;;;;1.00;1.00;;;17.90;84.50;;;;;;5053238;28;20738;-86
2022/07/10 08:54:01;;;;;;;1.23;1.17;;;17.80;85.70;;;;;;5054910;28;21348;-86
2022/07/10 08:56:31;;;;;;;1.27;1.17;;;18.10;85.70;;;;;;5052059;28;20661;-85
2022/07/10 08:59:00;;;;;;;1.50;1.40;;;18.20;84.20;;;;;;5052811;28;21245;-86
2022/07/10 09:01:27;;;;;;;0.97;0.97;;;18.30;82.40;;;;;;5052081;28;20631;-84
2022/07/10 09:03:54;;;;;;;1.50;1.40;;;18.30;82.80;;;;;;5058359;28;20667;-86
2022/07/10 09:06:20;;;;;;;1.00;0.90;;;18.70;83.30;;;;;;5055744;28;20615;-87
2022/07/10 09:09:02;;;;;;;0.87;0.87;;;18.60;82.00;;;;;;5054227;28;20618;-86
2022/07/10 09:11:30;;;;;;;0.90;0.90;;;18.80;82.40;;;;;;5052855;28;20653;-86
2022/07/10 09:13:59;;;;;;;1.30;1.20;;;18.90;82.50;;;;;;5053384;28;21262;-85
2022/07/10 09:16:29;;;;;;;1.27;1.17;;;19.20;80.60;;;;;;5054935;28;21557;-86
2022/07/10 09:18:56;;;;;;;1.00;0.90;;;19.00;80.60;;;;;;5058034;28;20633;-84
2022/07/10 09:21:24;;;;;;;1.10;1.00;;;18.60;77.30;;;;;;5059611;28;20733;-84
2022/07/10 09:23:52;;;;;;;0.80;0.80;;;18.50;78.40;;;;;;5053755;28;20690;-85
2022/07/10 09:26:19;;;;;;;1.03;1.00;;;18.30;77.80;;;;;;5049818;28;20725;-85
2022/07/10 09:28:53;;;;;;;2.30;1.20;;;18.30;79.90;;;;;;5059216;28;20767;-85
2022/07/10 09:31:20;;;;;;;1.00;1.00;;;18.50;80.50;;;;;;5054454;28;21228;-85
2022/07/10 09:33:47;;;;;;;1.23;0.83;;;18.90;79.00;;;;;;5049713;28;20658;-84
2022/07/10 09:36:14;;;;;;;1.20;1.10;;;18.70;79.20;;;;;;5048833;28;21000;-84
2022/07/10 09:39:02;;;;;;;1.00;1.00;;;19.20;76.60;;;;;;5049174;28;20658;-85
2022/07/10 09:41:30;;;;;;;0.73;0.73;;;19.00;76.30;;;;;;5051488;28;20744;-85
2022/07/10 09:44:00;;;;;;;1.10;1.10;;;18.80;75.10;;;;;;5058372;28;20629;-83
2022/07/10 09:46:31;;;;;;;0.77;0.77;;;18.60;77.10;;;;;;5054684;28;20613;-84
2022/07/10 09:49:10;;;;;;;1.30;1.20;;;18.60;75.50;;;;;;5049418;28;20715;-84
2022/07/10 09:51:39;;;;;;;1.27;1.17;;;19.00;79.90;;;;;;5054372;28;20653;-84
2022/07/10 09:54:08;;;;;;;1.03;0.97;;;19.50;77.20;;;;;;5050239;28;20622;-84
2022/07/10 09:56:47;;;;;;;0.97;0.87;;;19.20;75.50;;;;;;5050598;28;20670;-86
2022/07/10 09:59:17;;;;;;;1.07;1.07;;;18.80;74.30;;;;;;5059130;28;20617;-84
2022/07/10 10:01:46;;;;;;;0.90;0.90;;;18.50;76.10;;;;;;5051741;28;20674;-84
2022/07/10 10:04:14;;;;;;;1.00;0.90;;;18.40;76.60;;;;;;5057481;28;20649;-84
2022/07/10 10:06:42;;;;;;;3.13;2.00;;;18.30;76.10;;;;;;5049847;28;20676;-84
2022/07/10 10:09:13;;;;;;;0.77;0.70;;;18.60;76.30;;;;;;5053250;28;20657;-85
2022/07/10 10:11:44;;;;;;;1.17;1.07;;;18.80;75.20;;;;;;5052428;28;20610;-84
2022/07/10 10:14:11;;;;;;;0.83;0.83;;;18.30;74.60;;;;;;5053057;28;20690;-84
2022/07/10 10:16:47;;;;;;;1.00;1.00;;;18.70;76.10;;;;;;5052740;28;20646;-85
2022/07/10 10:22:00;;;;;;;1.03;1.03;;;18.70;75.60;;;;;;5051887;28;21217;-84
2022/07/10 10:24:27;;;;;;;0.90;0.90;;;18.80;74.40;;;;;;5056005;28;21009;-84
2022/07/10 10:26:57;;;;;;;1.03;0.87;;;18.80;75.10;;;;;;5054376;28;20622;-84
2022/07/10 10:29:24;;;;;;;1.87;1.10;;;19.20;72.90;;;;;;5058432;28;21081;-84
2022/07/10 10:31:53;;;;;;;1.47;1.37;;;19.40;71.10;;;;;;5053462;28;20721;-85
2022/07/10 10:34:42;;;;;;;1.33;1.23;;;19.50;73.30;;;;;;5053465;28;20662;-84
2022/07/10 10:37:33;;;;;;;1.10;1.10;;;19.50;71.70;;;;;;5056228;28;20649;-84
2022/07/10 10:40:02;;;;;;;1.47;1.23;;;20.00;73.20;;;;;;5052482;28;20626;-85
2022/07/10 10:42:37;;;;;;;1.10;1.00;;;20.40;70.30;;;;;;5057104;28;20653;-84
2022/07/10 10:45:27;;;;;;;0.93;0.70;;;20.70;69.80;;;;;;5056256;28;20632;-85
2022/07/10 10:48:02;;;;;;;0.80;0.80;;;20.10;67.60;;;;;;5056678;28;20714;-85
2022/07/10 10:50:39;;;;;;;1.33;1.23;;;20.20;67.90;;;;;;5051782;28;20620;-85
2022/07/10 10:53:20;;;;;;;1.00;0.80;;;19.80;66.90;;;;;;5055966;28;20657;-86
2022/07/10 10:56:31;;;;;;;1.17;1.10;;;20.00;68.40;;;;;;5055564;28;20644;-84
2022/07/10 10:58:58;;;;;;;1.43;1.30;;;20.70;70.80;;;;;;5049442;28;20667;-86
2022/07/10 11:01:31;;;;;;;1.30;1.20;;;21.10;66.90;;;;;;5049650;28;20702;-84
2022/07/10 11:04:17;;;;;;;1.20;1.10;;;20.80;65.60;;;;;;5047165;28;20630;-84
2022/07/10 11:06:48;;;;;;;1.00;1.00;;;20.20;64.40;;;;;;5052474;28;20656;-85
2022/07/10 11:09:29;;;;;;;1.70;1.60;;;19.70;65.80;;;;;;5051814;28;20672;-84
2022/07/10 11:12:05;;;;;;;0.80;0.80;;;19.80;67.30;;;;;;5054981;28;20717;-85
2022/07/10 11:14:34;;;;;;;0.97;0.97;;;20.10;69.30;;;;;;5053250;28;20611;-84
2022/07/10 11:17:02;;;;;;;1.17;1.03;;;20.60;68.00;;;;;;5051002;28;20654;-84
2022/07/10 11:19:33;;;;;;;1.90;1.37;;;20.70;65.00;;;;;;5049116;28;20706;-84
2022/07/10 11:22:22;;;;;;;1.30;1.20;;;21.00;65.60;;;;;;5052543;28;20622;-85
2022/07/10 11:24:59;;;;;;;0.73;0.73;;;21.40;63.00;;;;;;5042598;28;20620;-85
2022/07/10 11:28:07;;;;;;;2.17;1.03;;;21.30;63.10;;;;;;5050774;28;20692;-84
2022/07/10 11:30:47;;;;;;;2.20;1.20;;;20.60;64.60;;;;;;5050778;28;20717;-84
2022/07/10 11:33:14;;;;;;;1.27;1.00;;;21.30;65.30;;;;;;5052332;28;20710;-84
2022/07/10 11:35:41;;;;;;;1.10;0.87;;;21.60;63.50;;;;;;5054838;28;21246;-85
2022/07/10 11:38:08;;;;;;;0.67;0.67;;;21.90;60.70;;;;;;5047731;28;20716;-86
2022/07/10 11:40:37;;;;;;;1.03;0.83;;;22.20;59.20;;;;;;5053979;28;20646;-85
2022/07/10 11:43:09;;;;;;;2.10;0.90;;;22.80;60.40;;;;;;5051655;28;21334;-85
2022/07/10 11:45:38;;;;;;;0.80;0.80;;;23.50;58.10;;;;;;5051179;28;20613;-85
2022/07/10 11:48:17;;;;;;;0.80;0.80;;;23.40;56.40;;;;;;5055492;28;20638;-84
2022/07/10 11:50:45;;;;;;;1.60;1.50;;;23.80;57.30;;;;;;5055085;28;20720;-85
2022/07/10 11:53:14;;;;;;;1.27;0.60;;;24.20;57.10;;;;;;5056215;28;20709;-85
2022/07/10 11:55:41;;;;;;;0.57;0.57;;;24.30;54.10;;;;;;5055477;28;20630;-84
2022/07/10 11:58:19;;;;;;;0.70;0.70;;;24.30;52.80;;;;;;5053147;28;21664;-84
2022/07/10 12:00:59;;;;;;;0.60;0.60;;;24.60;52.40;;;;;;5055387;28;20617;-85
2022/07/10 12:03:26;;;;;;;0.80;0.80;;;24.20;54.30;;;;;;5054888;28;21176;-85
2022/07/10 12:05:52;;;;;;;0.77;0.77;;;23.90;56.50;;;;;;5051296;28;20662;-85
2022/07/10 12:08:19;;;;;;;0.57;0.57;;;24.10;54.50;;;;;;5053883;28;21288;-85
2022/07/10 12:10:46;;;;;;;0.83;0.67;;;24.30;54.40;;;;;;5056884;28;20622;-85
2022/07/10 12:13:15;;;;;;;0.57;0.57;;;25.10;52.10;;;;;;5050382;28;20717;-85
2022/07/10 12:15:44;;;;;;;1.10;1.00;;;26.30;54.00;;;;;;5051115;28;20690;-85
2022/07/10 12:18:17;;;;;;;0.80;0.80;;;27.40;51.40;;;;;;5052515;28;21931;-86
2022/07/10 12:20:47;;;;;;;0.80;0.80;;;28.00;50.10;;;;;;5055565;28;21212;-85
2022/07/10 12:23:16;;;;;;;1.63;0.77;;;28.10;47.60;;;;;;5052708;28;21272;-85
2022/07/10 12:25:44;;;;;;;0.53;0.53;;;28.50;47.10;;;;;;5054218;28;20613;-86
2022/07/10 12:28:11;;;;;;;0.70;0.70;;;29.70;45.20;;;;;;5047774;28;21197;-85
2022/07/10 12:30:40;;;;;;;0.90;0.70;;;29.80;45.00;;;;;;5050224;28;20725;-87
2022/07/10 12:33:10;;;;;;;0.87;0.60;;;30.80;43.70;;;;;;5051248;28;20622;-85
2022/07/10 12:35:51;;;;;;;0.60;0.60;;;30.90;43.30;;;;;;5056894;28;21313;-86
2022/07/10 12:38:19;;;;;;;0.50;0.50;;;30.90;40.50;;;;;;5056386;28;21063;-85
2022/07/10 12:40:47;;;;;;;0.70;0.63;;;31.00;39.80;;;;;;5050673;28;20633;-83
2022/07/10 12:43:13;;;;;;;0.73;0.73;;;30.80;39.90;;;;;;5053598;28;20779;-84
2022/07/10 12:45:40;;;;;;;0.67;0.67;;;31.60;41.20;;;;;;5058443;28;20626;-83
2022/07/10 12:48:22;;;;;;;0.40;0.40;;;31.30;40.60;;;;;;5055675;28;20669;-83
2022/07/10 12:50:48;;;;;;;0.53;0.53;;;30.30;40.60;;;;;;5054199;28;20625;-84
2022/07/10 12:53:15;;;;;;;0.57;0.57;;;30.70;40.30;;;;;;5058799;28;20657;-83
2022/07/10 12:55:42;;;;;;;0.50;0.50;;;30.60;39.40;;;;;;5055834;28;20617;-84
2022/07/10 12:58:12;;;;;;;0.60;0.60;;;29.90;38.30;;;;;;5055188;28;20779;-84
2022/07/10 13:00:46;;;;;;;0.47;0.40;;;29.70;41.60;;;;;;5055688;28;20626;-84
2022/07/10 13:03:19;;;;;;;0.70;0.70;;;30.20;41.50;;;;;;5050982;28;20632;-86
2022/07/10 13:05:46;;;;;;;0.40;0.40;;;30.70;39.80;;;;;;5053586;28;20657;-83
2022/07/10 13:08:16;;;;;;;0.40;0.40;;;30.30;41.60;;;;;;5053216;28;20610;-84
2022/07/10 13:10:44;;;;;;;1.00;0.53;;;29.70;40.80;;;;;;5059029;28;20625;-83
2022/07/10 13:13:11;;;;;;;0.80;0.80;;;29.50;40.50;;;;;;5055771;28;20633;-86